ADDS METAR Data INFO
IDs: Format: Raw Decoded Include TAF

Data at: 1156 UTC 25 Jun 2018

KCRP 251151Z 16008KT 10SM FEW020 FEW035 FEW200 BKN250 26/26 A2991 RMK AO2 SLP127 CB DSNT N-NE MOV NW T02610256 10272 20256 53006
KCRP 251051Z 16009KT 10SM FEW020 FEW038 FEW200 BKN250 26/26 A2989 RMK AO2 SLP121 CB DSNT NE E MOV NW T02610256
KCRP 250951Z 15012KT 10SM FEW020 FEW038 BKN250 26/26 A2990 RMK AO2 SLP123 FRQ LTGIC DSNT SE CB DSNT SE MOV NW T02610256
KCRP 250851Z 16008KT 10SM FEW021 FEW037 BKN250 26/26 A2989 RMK AO2 SLP120 T02610256 55003
KCRP 250751Z 16012KT 10SM FEW021 FEW047 BKN250 27/26 A2989 RMK AO2 SLP120 T02670256
KCRP 250651Z 15012KT 10SM FEW020 FEW031 FEW040 BKN250 27/26 A2989 RMK AO2 SLP121 CB DSNT SE MOV NW T02670256
KCRP 250551Z 13011KT 10SM FEW021 SCT026 BKN040 BKN250 27/26 A2990 RMK AO2 SLP123 T02720261 10283 20261 403170261 51010
KCRP 250451Z 14009KT 10SM FEW018 BKN250 27/26 A2989 RMK AO2 SLP121 T02670261
KCRP 250351Z 14008KT 10SM FEW017 FEW180 BKN250 27/26 A2989 RMK AO2 SLP121 T02670261
KCRP 250251Z 14008KT 10SM FEW020 FEW180 BKN250 27/26 A2987 RMK AO2 SLP113 T02670256 53014
KCRP 250151Z 14006KT 10SM SCT018 SCT200 BKN250 27/26 A2985 RMK AO2 SLP105 T02720261
KCRP 250051Z 15013KT 10SM FEW022 SCT180 BKN250 28/26 A2983 RMK AO2 SLP098 T02780261
KCRP 242351Z 14011KT 10SM SCT022 SCT180 OVC250 28/26 A2983 RMK AO2 SLP099 T02830256 10317 20283 56008
KCRP 242251Z 13015KT 10SM FEW026 OVC250 29/26 A2983 RMK AO2 SLP101 T02940261
KCRP 242151Z 14012KT 10SM SCT032 SCT041 BKN250 31/26 A2984 RMK AO2 SLP102 T03110256
KCRP 242051Z 15015G19KT 10SM FEW029 SCT037 BKN250 32/26 A2985 RMK AO2 SLP107 T03170261 58008
KCRP 241951Z 14018G22KT 10SM FEW033 SCT038 SCT055 BKN200 31/26 A2987 RMK AO2 PK WND 14026/1907 SLP113 T03060261
KCRP 241851Z 14016G24KT 10SM FEW030 SCT037 SCT050 SCT200 31/26 A2988 RMK AO2 PK WND 15028/1829 SLP116 T03110261
KCRP 241751Z 15015G20KT 10SM FEW027 SCT036 SCT050 31/26 A2988 RMK AO2 SLP115 T03060261 10306 20261 51012
KCRP 241651Z 16014G20KT 10SM FEW028 SCT031 BKN043 30/26 A2987 RMK AO2 SLP114 T03000261
KCRP 241551Z 17010KT 10SM FEW031 BKN037 29/26 A2986 RMK AO2 SLP110 T02940256
KCRP 241515Z 17012KT 10SM FEW028 BKN034 28/26 A2985 RMK AO2 T02830256
KCRP 241451Z 18011KT 10SM FEW025 BKN029 29/26 A2984 RMK AO2 SLP104 T02890256 50005
KCRP 241351Z 17015KT 10SM SCT018 BKN023 28/26 A2985 RMK AO2 SLP105 T02780261
KCRP 241330Z 17011G20KT 10SM BKN016 BKN020 BKN200 28/26 A2984 RMK AO2 T02780261
KCRP 241251Z 16013KT 10SM SCT013 SCT200 27/26 A2983 RMK AO2 SLP101 T02720261
KCRP 241151Z 16012KT 10SM SCT014 SCT200 26/26 A2983 RMK AO2 SLP099 T02610261 10272 20261 57006
KCRP 241051Z 16012KT 10SM FEW014 26/26 A2983 RMK AO2 SLP101 T02610261
KCRP 240951Z 16013G20KT 10SM FEW014 26/26 A2984 RMK AO2 SLP102 T02610261
KCRP 240851Z 16012KT 10SM FEW014 26/26 A2984 RMK AO2 SLP105 T02610261 58001
KCRP 240751Z 16013G21KT 10SM FEW015 27/26 A2985 RMK AO2 SLP105 T02670261
KCRP 240651Z 17013KT 10SM FEW016 SCT020 27/27 A2985 RMK AO2 SLP106 T02720267
KCRP 240551Z 16014KT 10SM FEW018 SCT021 27/27 A2985 RMK AO2 SLP106 T02720267 10300 20267 403170250 51018
KCRP 240517Z 16013KT 10SM SCT018 27/27 A2984 RMK AO2 T02720267
KCRP 240451Z 15013KT 10SM BKN015 BKN021 28/27 A2984 RMK AO2 SLP103 T02780267
KCRP 240351Z 16011KT 10SM SCT014 BKN020 28/27 A2982 RMK AO2 SLP095 T02780272
KCRP 240251Z 15012KT 10SM SCT015 BKN021 BKN250 28/27 A2980 RMK AO2 SLP088 T02780272 53015
KCRP 240151Z 14013G21KT 10SM FEW015 SCT250 28/27 A2977 RMK AO2 SLP081 T02780272
KCRP 240051Z 14016G25KT 10SM FEW018 SCT250 28/27 A2976 RMK AO2 PK WND 15027/0008 SLP076 T02830272